Time;durP1;ratioP1;P1;durP2;ratioP2;P2;SDS_P1;SDS_P2;PMS_P1;PMS_P2;Temp;Humidity;BMP_temperature;BMP_pressure;BME280_temperature;BME280_humidity;BME280_pressure;Samples;Min_cycle;Max_cycle;Signal;HPM_P1;HPM_P2
2023/02/22 00:01:00;;;;;;;0.50;0.50;;;;;;;1.46;81.18;98123.39;105327;1257;76595;-27
2023/02/22 00:03:31;;;;;;;;;;;;;;;1.27;82.56;98125.14;105594;1262;74120;-27
2023/02/22 00:06:04;;;;;;;0.30;0.30;;;;;;;1.10;84.11;98133.99;105577;1263;61131;-28
2023/02/22 00:08:35;;;;;;;0.80;0.50;;;;;;;1.38;84.10;98132.73;105483;1258;61119;-27
2023/02/22 00:11:08;;;;;;;2.00;0.70;;;;;;;1.92;82.38;98138.67;105152;1257;74566;-27
2023/02/22 00:13:37;;;;;;;2.00;0.80;;;;;;;1.73;82.17;98141.15;105308;1260;76226;-27
2023/02/22 00:16:05;;;;;;;1.40;0.50;;;;;;;1.60;82.85;98140.68;105358;1257;73461;-27
2023/02/22 00:18:36;;;;;;;1.00;0.60;;;;;;;1.30;83.34;98139.52;105496;1257;61361;-27
2023/02/22 00:21:09;;;;;;;1.00;0.70;;;;;;;0.81;84.01;98144.33;105184;1257;61871;-27
2023/02/22 00:23:45;;;;;;;3.00;0.50;;;;;;;0.79;83.46;98147.16;105429;1257;74611;-27
2023/02/22 00:26:17;;;;;;;0.50;0.40;;;;;;;1.14;82.70;98149.33;105262;1257;76178;-27
2023/02/22 00:28:47;;;;;;;0.70;0.70;;;;;;;1.40;81.73;98155.70;105516;1257;74502;-28
2023/02/22 00:31:15;;;;;;;1.00;0.60;;;;;;;1.20;81.87;98158.77;105267;1257;61242;-27
2023/02/22 00:33:44;;;;;;;5.20;1.60;;;;;;;1.01;82.13;98159.61;105587;1257;61179;-27
2023/02/22 00:36:14;;;;;;;3.90;1.10;;;;;;;0.68;82.08;98167.60;105626;1257;74536;-27
2023/02/22 00:38:42;;;;;;;2.30;0.90;;;;;;;0.56;82.18;98170.98;105468;1257;75117;-27
2023/02/22 00:41:11;;;;;;;2.90;1.00;;;;;;;1.08;80.61;98175.16;105516;1260;74338;-27
2023/02/22 00:43:40;;;;;;;2.60;1.10;;;;;;;1.00;80.04;98181.89;105534;1257;61920;-27
2023/02/22 00:46:09;;;;;;;5.00;1.40;;;;;;;1.01;79.68;98188.16;105417;1257;62116;-27
2023/02/22 00:48:38;;;;;;;2.60;1.00;;;;;;;0.86;80.23;98193.58;105152;1257;74486;-27
2023/02/22 00:51:07;;;;;;;2.00;1.10;;;;;;;0.51;80.81;98194.83;105370;1258;75841;-27
2023/02/22 00:55:25;;;;;;;2.10;1.10;;;;;;;0.69;80.18;98201.39;102673;1292;600424;-27
2023/02/22 00:57:54;;;;;;;2.20;1.20;;;;;;;0.81;79.77;98202.97;104890;1270;61766;-27
2023/02/22 01:00:25;;;;;;;9.00;3.30;;;;;;;0.85;79.10;98209.09;104880;1265;61632;-27
2023/02/22 01:02:55;;;;;;;7.80;3.30;;;;;;;0.69;79.44;98213.48;104801;1273;73704;-27
2023/02/22 01:05:26;;;;;;;3.50;1.40;;;;;;;0.63;80.14;98213.83;104860;1270;76228;-27
2023/02/22 01:07:56;;;;;;;4.40;2.20;;;;;;;0.45;80.46;98219.72;103388;1267;1880692;-28
2023/02/22 01:10:26;;;;;;;1.80;0.80;;;;;;;0.58;79.92;98227.55;104901;1264;61500;-28
2023/02/22 01:12:54;;;;;;;1.90;1.10;;;;;;;1.05;78.40;98229.30;104862;1267;61180;-28
2023/02/22 01:15:26;;;;;;;6.10;2.00;;;;;;;1.16;77.71;98230.75;105214;1268;74263;-27
2023/02/22 01:17:54;;;;;;;3.80;1.30;;;;;;;1.02;77.98;98231.70;104920;1264;74581;-28
2023/02/22 01:20:24;;;;;;;2.40;1.30;;;;;;;0.80;78.62;98239.73;105137;1264;73493;-28
2023/02/22 01:22:54;;;;;;;2.10;1.10;;;;;;;0.52;79.75;98240.56;105192;1267;61184;-28
2023/02/22 01:25:24;;;;;;;1.90;1.40;;;;;;;0.40;80.61;98243.89;105039;1269;61801;-28
2023/02/22 01:27:53;;;;;;;1.40;0.80;;;;;;;0.20;81.16;98243.59;105090;1267;73283;-28
2023/02/22 01:30:24;;;;;;;1.70;1.00;;;;;;;0.74;80.81;98248.73;105260;1265;76001;-28
2023/02/22 01:32:53;;;;;;;3.50;1.60;;;;;;;0.96;78.65;98248.79;105260;1266;74065;-28
2023/02/22 01:35:24;;;;;;;0.90;0.80;;;;;;;1.00;77.73;98247.17;105433;1264;62167;-28
2023/02/22 01:37:52;;;;;;;1.70;1.10;;;;;;;0.70;78.00;98248.84;105244;1260;62107;-28
2023/02/22 01:40:29;;;;;;;1.10;0.90;;;;;;;0.43;78.82;98257.40;105260;1264;74702;-28
2023/02/22 01:42:59;;;;;;;3.30;1.20;;;;;;;0.37;79.14;98262.15;105220;1261;74804;-28
2023/02/22 01:45:28;;;;;;;1.00;0.80;;;;;;;0.21;79.94;98268.45;105187;1261;74474;-28
2023/02/22 01:47:59;;;;;;;0.80;0.60;;;;;;;0.06;80.24;98270.04;105214;1264;62723;-29
2023/02/22 01:50:28;;;;;;;1.20;0.80;;;;;;;0.42;79.47;98274.35;105224;1267;61975;-28
2023/02/22 01:52:58;;;;;;;1.60;0.90;;;;;;;0.64;77.33;98276.95;105250;1261;73606;-28
2023/02/22 01:55:26;;;;;;;0.70;0.60;;;;;;;0.70;76.86;98275.13;105189;1261;76207;-28
2023/02/22 01:57:57;;;;;;;1.20;0.70;;;;;;;0.48;77.07;98284.31;105202;1266;74427;-28
2023/02/22 02:00:26;;;;;;;2.00;1.20;;;;;;;0.40;77.25;98286.41;105232;1264;61170;-29
2023/02/22 02:02:59;;;;;;;0.90;0.70;;;;;;;-0.04;78.45;98286.42;105195;1261;62233;-28
2023/02/22 02:05:30;;;;;;;2.90;1.40;;;;;;;-0.11;78.76;98291.02;105086;1270;74709;-28
2023/02/22 02:08:07;;;;;;;3.70;2.20;;;;;;;-0.24;79.18;98291.82;105162;1267;76152;-28
2023/02/22 02:10:37;;;;;;;2.90;1.90;;;;;;;0.10;77.71;98289.66;104899;1260;74540;-28
2023/02/22 02:13:06;;;;;;;3.20;2.10;;;;;;;0.28;77.24;98292.34;104883;1266;62213;-28
2023/02/22 02:15:35;;;;;;;2.40;1.60;;;;;;;0.17;77.30;98296.51;104952;1268;61814;-28
2023/02/22 02:18:09;;;;;;;2.00;1.10;;;;;;;0.02;78.33;98293.80;105168;1264;74887;-28
2023/02/22 02:21:10;;;;;;;1.00;0.90;;;;;;;0.07;78.08;98301.41;105140;1267;75840;-27
2023/02/22 02:24:01;;;;;;;1.00;0.80;;;;;;;-0.26;80.02;98303.52;105199;1265;74432;-27
2023/02/22 02:26:57;;;;;;;1.20;0.70;;;;;;;-0.14;80.19;98310.30;105048;1262;62663;-27
2023/02/22 02:30:05;;;;;;;1.40;1.00;;;;;;;0.38;78.35;98312.14;105225;1265;61154;-27
2023/02/22 02:32:57;;;;;;;1.00;0.90;;;;;;;0.34;77.52;98321.05;105152;1260;74828;-27
2023/02/22 02:35:35;;;;;;;3.40;1.60;;;;;;;0.17;77.99;98322.77;105143;1267;75665;-27
2023/02/22 02:38:13;;;;;;;1.40;0.90;;;;;;;-0.04;78.95;98324.29;105010;1266;74255;-28
2023/02/22 02:40:54;;;;;;;2.10;1.40;;;;;;;-0.24;80.15;98327.15;104915;1260;61189;-27
2023/02/22 02:43:41;;;;;;;1.50;1.20;;;;;;;-0.26;80.82;98331.72;105094;1267;61620;-27
2023/02/22 02:46:20;;;;;;;1.00;0.70;;;;;;;0.14;79.22;98334.19;105187;1266;73652;-27
2023/02/22 02:48:53;;;;;;;1.10;0.80;;;;;;;0.48;77.55;98339.46;105208;1267;75892;-28
2023/02/22 02:51:24;;;;;;;2.00;1.10;;;;;;;0.28;77.39;98339.98;105051;1267;74498;-27
2023/02/22 02:53:53;;;;;;;2.40;1.20;;;;;;;0.24;78.03;98336.92;105080;1260;61382;-27
2023/02/22 02:56:23;;;;;;;3.00;1.10;;;;;;;-0.15;78.68;98335.73;105060;1260;62070;-27
2023/02/22 02:58:52;;;;;;;1.50;0.90;;;;;;;-0.30;80.01;98337.85;105248;1265;74640;-27
2023/02/22 03:02:01;;;;;;;1.80;1.30;;;;;;;-0.29;80.31;98335.08;105139;1267;76044;-28
2023/02/22 03:04:34;;;;;;;1.30;0.90;;;;;;;0.00;78.63;98341.87;105169;1266;74201;-28
2023/02/22 03:07:43;;;;;;;2.80;1.70;;;;;;;0.17;77.39;98345.13;105222;1260;61894;-29
2023/02/22 03:10:37;;;;;;;3.00;2.00;;;;;;;0.08;77.30;98346.25;105202;1267;62211;-28
2023/02/22 03:13:13;;;;;;;1.70;1.20;;;;;;;-0.31;78.36;98353.41;105252;1261;74629;-27
2023/02/22 03:16:01;;;;;;;1.20;0.80;;;;;;;-0.43;78.81;98358.45;105217;1260;75796;-28
2023/02/22 03:18:55;;;;;;;1.40;1.10;;;;;;;-0.56;79.83;98366.36;105213;1260;74474;-28
2023/02/22 03:21:43;;;;;;;2.20;0.80;;;;;;;-0.12;78.56;98370.09;105176;1265;61323;-27
2023/02/22 03:24:17;;;;;;;2.00;1.20;;;;;;;0.27;76.96;98380.84;105149;1267;61877;-28
2023/02/22 03:26:48;;;;;;;;;;;;;;;0.16;76.92;98384.77;105206;1267;74818;-27
2023/02/22 03:29:17;;;;;;;1.60;1.10;;;;;;;-0.13;78.19;98386.35;104938;1261;76011;-28
2023/02/22 03:32:00;;;;;;;1.60;1.30;;;;;;;-0.23;79.18;98392.48;105045;1261;74473;-27
2023/02/22 03:34:39;;;;;;;2.60;1.20;;;;;;;-0.41;80.05;98391.57;105210;1260;61110;-27
2023/02/22 03:37:17;;;;;;;1.40;1.10;;;;;;;-0.59;80.81;98393.95;104939;1260;61068;-27
2023/02/22 03:39:46;;;;;;;2.60;1.10;;;;;;;-0.13;80.17;98392.84;104825;1260;74700;-27
2023/02/22 03:42:18;;;;;;;1.80;1.20;;;;;;;0.19;78.58;98397.11;104905;1267;75454;-27
2023/02/22 03:44:47;;;;;;;1.70;1.10;;;;;;;0.12;78.64;98401.17;104791;1268;74469;-27
2023/02/22 03:47:27;;;;;;;1.30;1.10;;;;;;;-0.11;79.57;98402.13;105471;1258;61102;-27
2023/02/22 03:50:05;;;;;;;1.70;1.10;;;;;;;-0.30;80.21;98400.95;105542;1261;61891;-27
2023/02/22 03:52:37;;;;;;;1.80;1.50;;;;;;;-0.49;81.60;98409.20;105274;1264;74938;-27
2023/02/22 03:55:10;;;;;;;3.50;1.40;;;;;;;-0.53;82.09;98412.09;105507;1256;76136;-27
2023/02/22 03:57:40;;;;;;;1.60;1.00;;;;;;;-0.22;81.09;98414.59;105238;1256;74138;-27
2023/02/22 04:00:10;;;;;;;1.80;1.20;;;;;;;0.10;79.85;98419.89;105165;1257;62160;-26
2023/02/22 04:02:43;;;;;;;1.50;0.80;;;;;;;0.19;79.22;98421.98;105279;1263;62391;-26
2023/02/22 04:05:15;;;;;;;2.00;1.40;;;;;;;-0.17;79.88;98426.13;105422;1262;74573;-26
2023/02/22 04:07:44;;;;;;;3.00;1.30;;;;;;;-0.37;80.92;98429.78;105531;1258;75604;-26
2023/02/22 04:10:14;;;;;;;2.20;1.40;;;;;;;-0.62;81.62;98430.59;105592;1256;74305;-26
2023/02/22 04:12:44;;;;;;;3.20;1.60;;;;;;;-0.44;81.47;98431.65;105210;1255;61710;-26
2023/02/22 04:15:19;;;;;;;3.30;1.30;;;;;;;-0.22;80.15;98435.59;105575;1256;61844;-26
2023/02/22 04:17:51;;;;;;;1.80;1.10;;;;;;;0.03;79.26;98440.70;105313;1264;74502;-26
2023/02/22 04:20:24;;;;;;;2.20;1.60;;;;;;;-0.30;79.51;98439.87;105344;1264;73884;-26
2023/02/22 04:22:59;;;;;;;2.90;2.00;;;;;;;-0.48;80.39;98440.34;105610;1257;72969;-26
2023/02/22 04:25:29;;;;;;;2.50;1.70;;;;;;;-0.66;80.70;98442.19;105497;1260;61162;-26
2023/02/22 04:27:57;;;;;;;1.40;1.30;;;;;;;-0.61;81.20;98445.70;105598;1256;61631;-26
2023/02/22 04:30:38;;;;;;;3.60;1.70;;;;;;;-0.29;79.85;98451.41;105658;1256;74541;-27
2023/02/22 04:33:11;;;;;;;3.20;1.90;;;;;;;-0.11;78.87;98451.60;105543;1256;75848;-26
2023/02/22 04:35:40;;;;;;;2.90;1.80;;;;;;;-0.34;79.08;98453.18;105534;1259;74511;-26
2023/02/22 04:38:09;;;;;;;2.10;1.70;;;;;;;-0.29;78.93;98454.31;105490;1262;61048;-26
2023/02/22 04:40:40;;;;;;;3.70;1.80;;;;;;;-0.50;79.50;98455.94;105416;1257;61861;-26
2023/02/22 04:43:10;;;;;;;2.50;1.60;;;;;;;-0.77;80.01;98462.08;105147;1256;74864;-26
2023/02/22 04:45:40;;;;;;;2.30;1.50;;;;;;;-0.60;79.77;98465.44;105190;1257;75697;-26
2023/02/22 04:48:09;;;;;;;2.80;1.50;;;;;;;-0.24;77.87;98468.91;105440;1257;74596;-26
2023/02/22 04:50:39;;;;;;;2.70;1.50;;;;;;;0.00;76.86;98468.48;105587;1256;61318;-26
2023/02/22 04:53:07;;;;;;;2.20;1.60;;;;;;;-0.00;76.12;98473.13;105496;1262;61742;-26
2023/02/22 04:55:38;;;;;;;4.50;2.50;;;;;;;-0.33;76.77;98477.17;105492;1260;74840;-27
2023/02/22 04:58:06;;;;;;;1.70;1.30;;;;;;;-0.57;77.57;98481.48;105254;1256;76138;-26
2023/02/22 05:00:38;;;;;;;2.00;1.50;;;;;;;-0.76;78.61;98487.42;105497;1256;74017;-26
2023/02/22 05:03:07;;;;;;;3.10;2.30;;;;;;;-0.78;79.29;98490.61;105609;1260;61779;-26
2023/02/22 05:05:37;;;;;;;1.90;1.40;;;;;;;-0.66;78.75;98490.56;105545;1260;61751;-26
2023/02/22 05:08:06;;;;;;;1.90;1.50;;;;;;;-0.18;76.74;98494.93;105567;1256;74566;-26
2023/02/22 05:10:37;;;;;;;3.20;1.70;;;;;;;-0.30;76.80;98506.88;105596;1260;76152;-27
2023/02/22 05:13:05;;;;;;;1.90;1.50;;;;;;;-0.24;76.69;98511.41;105551;1257;74356;-26
2023/02/22 05:15:34;;;;;;;3.50;2.70;;;;;;;-0.34;77.01;98516.27;105622;1256;61351;-26
2023/02/22 05:18:03;;;;;;;3.60;2.60;;;;;;;-0.56;78.24;98522.23;105437;1261;61852;-26
2023/02/22 05:20:33;;;;;;;2.40;1.60;;;;;;;-0.71;78.78;98525.42;105491;1258;75257;-27
2023/02/22 05:23:02;;;;;;;2.00;1.40;;;;;;;-0.53;78.53;98533.34;105333;1256;76141;-26
2023/02/22 05:25:33;;;;;;;3.50;2.00;;;;;;;-0.11;76.60;98534.88;105228;1256;74216;-26
2023/02/22 05:28:06;;;;;;;5.40;2.50;;;;;;;-0.04;76.55;98539.84;105144;1259;61660;-26
2023/02/22 05:30:35;;;;;;;2.80;2.10;;;;;;;-0.11;75.98;98539.64;105218;1257;61065;-26
2023/02/22 05:33:04;;;;;;;2.50;1.70;;;;;;;-0.31;76.81;98543.81;105586;1255;75738;-27
2023/02/22 05:35:33;;;;;;;2.30;1.50;;;;;;;-0.42;77.04;98549.23;105579;1257;75858;-26
2023/02/22 05:38:02;;;;;;;4.00;2.50;;;;;;;-0.61;78.37;98557.40;105620;1260;74405;-26
2023/02/22 05:40:31;;;;;;;3.80;2.40;;;;;;;-0.65;78.86;98561.15;105209;1256;61189;-26
2023/02/22 05:43:01;;;;;;;3.60;2.60;;;;;;;-0.54;78.87;98560.85;105615;1260;61578;-26
2023/02/22 05:45:32;;;;;;;6.10;2.60;;;;;;;-0.23;77.20;98559.67;105293;1257;75648;-27
2023/02/22 05:48:00;;;;;;;2.90;2.00;;;;;;;-0.05;76.75;98568.39;105550;1256;74764;-26
2023/02/22 05:50:36;;;;;;;2.20;1.60;;;;;;;-0.29;77.59;98570.48;105558;1256;74478;-26
2023/02/22 05:53:05;;;;;;;4.30;2.20;;;;;;;-0.29;77.24;98576.27;105573;1256;61180;-27
2023/02/22 05:55:33;;;;;;;3.40;2.10;;;;;;;-0.46;77.74;98579.23;105523;1262;62133;-26
2023/02/22 05:58:04;;;;;;;5.10;3.10;;;;;;;-0.71;78.63;98584.23;105536;1256;75373;-27
2023/02/22 06:00:33;;;;;;;3.40;2.50;;;;;;;-0.78;78.90;98590.65;105342;1260;76194;-27
2023/02/22 06:03:05;;;;;;;3.60;1.90;;;;;;;-0.72;79.34;98591.42;105434;1260;74460;-26
2023/02/22 06:05:34;;;;;;;5.40;2.50;;;;;;;-0.21;78.04;98598.61;105287;1263;61155;-26
2023/02/22 06:08:04;;;;;;;3.20;2.30;;;;;;;-0.03;76.80;98602.80;105318;1260;61474;-27
2023/02/22 06:10:32;;;;;;;5.10;3.20;;;;;;;-0.20;76.97;98606.92;105275;1264;75645;-27
2023/02/22 06:13:05;;;;;;;;;;;;;;;-0.50;77.75;98613.89;105610;1256;76186;-27
2023/02/22 06:15:34;;;;;;;5.60;3.40;;;;;;;-0.47;78.33;98614.77;105601;1256;73362;-26
2023/02/22 06:18:03;;;;;;;2.80;2.40;;;;;;;-0.66;78.33;98620.33;105622;1256;61061;-26
2023/02/22 06:20:34;;;;;;;3.10;1.90;;;;;;;-0.61;79.03;98624.38;105531;1256;61739;-26
2023/02/22 06:23:02;;;;;;;2.80;1.90;;;;;;;-0.01;76.89;98627.44;105566;1256;75429;-27
2023/02/22 06:25:35;;;;;;;2.40;1.80;;;;;;;0.16;75.34;98631.30;105506;1255;76015;-26
2023/02/22 06:28:04;;;;;;;2.80;1.90;;;;;;;-0.01;75.80;98632.92;105596;1257;74170;-26
2023/02/22 06:30:32;;;;;;;1.90;1.50;;;;;;;-0.10;76.08;98638.60;105563;1256;61037;-26
2023/02/22 06:33:01;;;;;;;2.60;2.00;;;;;;;-0.17;76.17;98644.86;105328;1257;61932;-26
2023/02/22 06:35:29;;;;;;;1.60;1.30;;;;;;;-0.32;77.15;98646.70;105432;1256;75674;-26
2023/02/22 06:37:58;;;;;;;2.40;1.70;;;;;;;-0.48;77.65;98651.64;105438;1260;75729;-26
2023/02/22 06:40:28;;;;;;;2.50;2.00;;;;;;;-0.54;78.01;98658.73;105440;1256;74325;-26
2023/02/22 06:42:59;;;;;;;1.90;1.60;;;;;;;-0.57;78.66;98655.94;105542;1256;62914;-26
2023/02/22 06:45:28;;;;;;;2.20;1.50;;;;;;;0.05;76.72;98660.63;105553;1257;61164;-26
2023/02/22 06:47:58;;;;;;;2.80;2.10;;;;;;;0.44;74.90;98657.16;105118;1257;75368;-27
2023/02/22 06:50:28;;;;;;;3.90;2.30;;;;;;;0.36;74.57;98662.33;105448;1264;76147;-26
2023/02/22 06:52:57;;;;;;;3.60;2.60;;;;;;;0.27;74.73;98665.78;105197;1257;73474;-26
2023/02/22 06:55:27;;;;;;;2.50;2.10;;;;;;;-0.02;75.78;98665.67;105506;1256;61119;-26
2023/02/22 06:57:55;;;;;;;5.40;3.50;;;;;;;-0.06;76.06;98666.72;105516;1262;61576;-26
2023/02/22 07:00:25;;;;;;;5.10;3.20;;;;;;;-0.17;76.55;98667.55;105534;1256;75062;-27
2023/02/22 07:02:54;;;;;;;5.40;3.30;;;;;;;-0.43;77.12;98667.81;105302;1264;74035;-26
2023/02/22 07:05:23;;;;;;;5.10;2.40;;;;;;;-0.39;77.95;98671.75;105568;1256;74136;-26
2023/02/22 07:08:02;;;;;;;3.80;2.40;;;;;;;0.17;75.70;98675.78;105070;1256;61137;-26
2023/02/22 07:10:32;;;;;;;3.10;2.20;;;;;;;0.40;74.28;98680.08;105254;1263;61731;-26
2023/02/22 07:13:08;;;;;;;3.60;2.20;;;;;;;0.48;74.28;98681.44;105104;1257;75565;-26
2023/02/22 07:15:37;;;;;;;3.50;1.90;;;;;;;0.29;74.24;98682.59;105492;1260;74436;-26
2023/02/22 07:18:08;;;;;;;3.10;1.50;;;;;;;-0.10;75.72;98683.83;105300;1256;74124;-26
2023/02/22 07:20:38;;;;;;;2.20;1.70;;;;;;;-0.28;75.95;98680.66;105195;1256;61170;-26
2023/02/22 07:23:06;;;;;;;2.80;1.80;;;;;;;-0.46;76.97;98687.05;105184;1261;61673;-26
2023/02/22 07:25:35;;;;;;;3.30;2.20;;;;;;;-0.55;77.79;98687.24;105285;1257;75196;-27
2023/02/22 07:28:04;;;;;;;4.30;2.00;;;;;;;-0.26;77.30;98688.77;105279;1260;74641;-26
2023/02/22 07:30:32;;;;;;;3.40;2.10;;;;;;;0.09;75.25;98689.84;105270;1262;74182;-26
2023/02/22 07:33:07;;;;;;;3.60;2.10;;;;;;;0.26;75.28;98694.72;105599;1260;61223;-27
2023/02/22 07:35:49;;;;;;;3.10;2.00;;;;;;;0.25;74.91;98693.70;105518;1264;61110;-26
2023/02/22 07:38:20;;;;;;;4.60;2.60;;;;;;;-0.25;76.39;98697.92;105550;1257;75685;-26
2023/02/22 07:40:49;;;;;;;2.70;1.70;;;;;;;-0.46;77.96;98700.50;105588;1256;75906;-26
2023/02/22 07:43:19;;;;;;;4.10;2.50;;;;;;;-0.38;77.87;98702.05;105538;1257;73930;-26
2023/02/22 07:45:48;;;;;;;4.30;2.00;;;;;;;-0.42;77.48;98701.88;105217;1264;61253;-26
2023/02/22 07:48:18;;;;;;;3.10;2.20;;;;;;;-0.28;77.53;98708.80;105290;1256;61056;-26
2023/02/22 07:50:47;;;;;;;3.90;2.50;;;;;;;0.04;76.19;98708.63;105378;1256;74614;-26
2023/02/22 07:53:22;;;;;;;3.90;2.70;;;;;;;0.12;76.70;98714.59;105607;1260;75864;-26
2023/02/22 07:55:50;;;;;;;3.00;2.30;;;;;;;-0.16;77.00;98714.42;105536;1256;74253;-26
2023/02/22 07:58:24;;;;;;;3.80;2.80;;;;;;;-0.33;78.19;98718.89;105631;1256;61164;-26
2023/02/22 08:00:54;;;;;;;6.10;4.50;;;;;;;-0.30;79.24;98721.85;105279;1257;61234;-27
2023/02/22 08:03:24;;;;;;;5.90;3.40;;;;;;;-0.34;80.10;98717.92;105509;1256;75795;-26
2023/02/22 08:05:54;;;;;;;9.10;4.60;;;;;;;-0.22;79.47;98721.52;105490;1262;76337;-26
2023/02/22 08:08:25;;;;;;;5.40;3.10;;;;;;;-0.08;78.39;98720.91;105165;1264;73965;-26
2023/02/22 08:10:54;;;;;;;6.10;3.90;;;;;;;0.04;78.63;98726.02;105500;1256;61895;-26
2023/02/22 08:13:23;;;;;;;6.60;3.10;;;;;;;-0.37;77.85;98726.73;105528;1260;62036;-26
2023/02/22 08:15:53;;;;;;;9.00;5.90;;;;;;;-0.55;78.13;98728.52;105571;1256;75866;-26
2023/02/22 08:18:23;;;;;;;10.00;6.50;;;;;;;-0.57;78.40;98732.86;105636;1260;75863;-26
2023/02/22 08:20:52;;;;;;;6.90;4.20;;;;;;;-0.73;77.92;98734.19;105603;1257;74368;-25
2023/02/22 08:23:24;;;;;;;7.40;4.40;;;;;;;-0.79;77.97;98736.61;105619;1256;62385;-26
2023/02/22 08:25:53;;;;;;;7.70;4.20;;;;;;;-0.30;77.74;98737.89;105473;1258;61607;-26
2023/02/22 08:28:22;;;;;;;6.70;3.60;;;;;;;-0.03;76.75;98736.27;105463;1256;75589;-26
2023/02/22 08:30:53;;;;;;;5.80;3.60;;;;;;;-0.19;77.15;98739.81;105303;1264;74782;-26
2023/02/22 08:33:24;;;;;;;14.20;10.40;;;;;;;-0.46;76.77;98739.75;105538;1256;74146;-26
2023/02/22 08:35:53;;;;;;;11.50;7.10;;;;;;;-0.56;77.25;98744.56;105566;1256;61397;-26
2023/02/22 08:38:26;;;;;;;6.10;3.60;;;;;;;-0.56;77.77;98742.86;105552;1260;61773;-26
2023/02/22 08:40:54;;;;;;;5.40;3.70;;;;;;;-0.83;78.00;98744.93;105283;1258;74706;-26
2023/02/22 08:43:22;;;;;;;8.60;4.20;;;;;;;-0.71;77.33;98745.69;105578;1257;76205;-26
2023/02/22 08:45:52;;;;;;;8.40;5.10;;;;;;;-0.29;76.52;98743.98;105552;1256;74433;-26
2023/02/22 08:48:24;;;;;;;5.70;2.50;;;;;;;-0.20;75.53;98749.40;105628;1256;61017;-26
2023/02/22 08:50:53;;;;;;;7.10;3.90;;;;;;;-0.43;75.69;98749.87;105559;1255;61671;-27
2023/02/22 08:53:22;;;;;;;8.30;5.10;;;;;;;-0.56;76.67;98751.89;105578;1256;75562;-26
2023/02/22 08:55:51;;;;;;;8.00;4.10;;;;;;;-0.56;76.85;98753.60;105516;1257;76182;-26
2023/02/22 08:58:19;;;;;;;5.00;3.40;;;;;;;-0.77;77.04;98754.44;105359;1256;73874;-26
2023/02/22 09:00:49;;;;;;;5.20;3.80;;;;;;;-0.81;77.90;98757.67;105580;1256;62708;-26
2023/02/22 09:03:19;;;;;;;5.40;3.50;;;;;;;-0.43;76.59;98760.41;105536;1260;62169;-29
2023/02/22 09:05:47;;;;;;;4.30;2.60;;;;;;;-0.06;75.07;98761.82;105585;1257;74667;-26
2023/02/22 09:08:16;;;;;;;4.40;3.20;;;;;;;0.18;74.49;98762.68;105511;1260;75766;-26
2023/02/22 09:10:45;;;;;;;5.90;3.20;;;;;;;0.04;74.20;98763.95;105612;1261;74208;-25
2023/02/22 09:13:19;;;;;;;5.70;3.50;;;;;;;-0.06;74.41;98767.77;105543;1257;61047;-26
2023/02/22 09:15:51;;;;;;;7.60;4.60;;;;;;;-0.28;76.06;98766.64;105567;1256;61671;-26
2023/02/22 09:18:20;;;;;;;6.70;3.40;;;;;;;-0.49;75.52;98771.06;105263;1257;75683;-26
2023/02/22 09:20:51;;;;;;;6.40;3.80;;;;;;;-0.68;76.15;98766.39;105357;1256;76095;-26
2023/02/22 09:23:22;;;;;;;3.30;2.00;;;;;;;-0.61;75.92;98770.17;105480;1256;74139;-26
2023/02/22 09:25:52;;;;;;;4.80;3.10;;;;;;;-0.03;74.64;98776.51;105434;1256;61084;-25
2023/02/22 09:28:25;;;;;;;3.70;2.70;;;;;;;0.36;72.67;98772.80;105509;1261;61698;-26
2023/02/22 09:30:56;;;;;;;3.10;2.30;;;;;;;0.12;72.22;98772.99;105225;1256;75337;-26
2023/02/22 09:33:24;;;;;;;6.00;3.30;;;;;;;-0.06;72.56;98774.42;105341;1256;75415;-26
2023/02/22 09:35:53;;;;;;;6.60;4.40;;;;;;;-0.13;73.29;98775.74;105407;1256;74443;-26
2023/02/22 09:38:23;;;;;;;5.60;3.30;;;;;;;-0.25;73.54;98773.17;105513;1256;61924;-26
2023/02/22 09:41:13;;;;;;;5.90;3.60;;;;;;;-0.39;75.41;98778.86;105099;1257;61049;-26
2023/02/22 09:44:00;;;;;;;5.60;4.00;;;;;;;-0.43;74.62;98782.25;105247;1256;75226;-26
2023/02/22 09:46:34;;;;;;;6.40;4.20;;;;;;;-0.62;75.13;98780.10;105267;1263;75716;-26
2023/02/22 09:49:14;;;;;;;5.20;3.40;;;;;;;-0.33;74.16;98783.38;105317;1256;73457;-26
2023/02/22 09:51:48;;;;;;;7.60;3.20;;;;;;;0.12;72.35;98782.18;105568;1263;61887;-26
2023/02/22 09:54:33;;;;;;;7.00;4.10;;;;;;;0.15;71.96;98783.27;105359;1256;61181;-26
2023/02/22 09:57:04;;;;;;;6.20;3.70;;;;;;;-0.03;72.02;98786.11;105531;1262;75326;-26
2023/02/22 09:59:39;;;;;;;6.50;3.40;;;;;;;-0.24;73.12;98781.51;105257;1264;75457;-27
2023/02/22 10:02:16;;;;;;;4.30;2.60;;;;;;;-0.49;74.14;98785.23;105334;1256;74165;-26
2023/02/22 10:05:21;;;;;;;1.60;1.20;;;;;;;-0.59;75.47;98786.47;105471;1256;61138;-26
2023/02/22 10:08:07;;;;;;;3.40;2.40;;;;;;;-0.70;75.95;98791.51;105216;1266;62019;-27
2023/02/22 10:10:38;;;;;;;7.40;3.50;;;;;;;-0.72;76.24;98794.64;105357;1256;75090;-26
2023/02/22 10:13:13;;;;;;;3.70;2.40;;;;;;;-0.17;75.22;98789.04;105096;1256;76141;-27
2023/02/22 10:16:01;;;;;;;4.70;3.00;;;;;;;0.03;74.18;98786.20;105444;1256;74459;-27
2023/02/22 10:18:59;;;;;;;4.00;2.20;;;;;;;-0.05;74.98;98786.51;105115;1256;61079;-27
2023/02/22 10:21:32;;;;;;;3.00;1.80;;;;;;;-0.15;74.62;98787.11;105114;1262;61862;-27
2023/02/22 10:24:17;;;;;;;4.50;2.70;;;;;;;-0.08;74.84;98789.52;105389;1256;75905;-26
2023/02/22 10:26:46;;;;;;;3.70;2.40;;;;;;;-0.37;75.02;98787.15;105446;1256;77190;-27
2023/02/22 10:29:20;;;;;;;5.50;3.30;;;;;;;-0.48;76.22;98787.92;105077;1256;74031;-26
2023/02/22 10:31:53;;;;;;;4.30;2.60;;;;;;;-0.51;76.92;98787.19;105135;1263;61171;-26
2023/02/22 10:34:24;;;;;;;7.30;2.30;;;;;;;-0.50;76.46;98790.70;105093;1256;61046;-26
2023/02/22 10:37:12;;;;;;;4.70;3.00;;;;;;;-0.03;75.45;98789.86;105130;1264;74710;-26
2023/02/22 10:39:40;;;;;;;4.70;3.20;;;;;;;0.10;74.76;98790.13;105124;1263;75907;-26
2023/02/22 10:42:09;;;;;;;4.60;2.20;;;;;;;0.24;74.38;98788.70;105100;1256;74242;-26
2023/02/22 10:44:40;;;;;;;5.50;3.10;;;;;;;0.07;74.71;98787.52;105240;1257;60999;-26
2023/02/22 10:47:17;;;;;;;5.30;3.00;;;;;;;-0.21;76.11;98789.88;105386;1261;61581;-26
2023/02/22 10:49:56;;;;;;;4.00;2.50;;;;;;;-0.41;74.64;98790.71;105167;1256;75089;-26
2023/02/22 10:52:32;;;;;;;6.20;3.70;;;;;;;-0.60;75.71;98790.44;105121;1256;76018;-26
2023/02/22 10:55:01;;;;;;;6.30;3.00;;;;;;;-0.83;76.02;98793.71;105100;1256;73594;-26
2023/02/22 10:57:46;;;;;;;5.10;2.70;;;;;;;-0.74;76.28;98790.48;105361;1256;61722;-26
2023/02/22 11:00:19;;;;;;;5.40;2.60;;;;;;;-0.44;75.45;98791.54;105435;1256;62132;-27
2023/02/22 11:02:53;;;;;;;5.90;3.00;;;;;;;-0.31;74.73;98792.16;105396;1256;74662;-26
2023/02/22 11:05:38;;;;;;;3.40;2.20;;;;;;;-0.21;75.36;98791.79;105131;1256;75871;-26
2023/02/22 11:08:40;;;;;;;3.50;1.60;;;;;;;-0.55;74.35;98789.02;105195;1260;72756;-27
2023/02/22 11:11:28;;;;;;;3.50;2.70;;;;;;;-0.62;74.82;98790.34;105343;1262;61306;-26
2023/02/22 11:13:56;;;;;;;3.10;2.20;;;;;;;-0.72;75.59;98793.48;105624;1261;62224;-26
2023/02/22 11:16:42;;;;;;;3.00;2.10;;;;;;;-0.79;75.81;98798.33;105548;1253;74613;-26
2023/02/22 11:19:24;;;;;;;3.60;1.80;;;;;;;-0.80;77.05;98801.95;105352;1253;76132;-26
2023/02/22 11:21:58;;;;;;;1.80;1.40;;;;;;;-0.13;74.36;98798.09;105401;1253;73892;-26
2023/02/22 11:24:30;;;;;;;2.10;1.80;;;;;;;0.29;73.48;98802.99;105141;1253;61909;-26
2023/02/22 11:27:27;;;;;;;3.20;2.10;;;;;;;0.29;72.67;98808.80;105583;1258;61053;-27
2023/02/22 11:30:05;;;;;;;3.40;2.40;;;;;;;-0.00;74.83;98806.44;105635;1253;75648;-26
2023/02/22 11:32:35;;;;;;;3.30;2.30;;;;;;;-0.24;74.21;98805.73;105447;1253;75903;-26
2023/02/22 11:35:17;;;;;;;2.70;1.70;;;;;;;-0.32;74.34;98806.73;105509;1253;74342;-28
2023/02/22 11:37:48;;;;;;;2.80;2.30;;;;;;;-0.69;72.99;98810.21;105180;1261;61057;-26
2023/02/22 11:40:22;;;;;;;3.10;2.20;;;;;;;-0.84;73.06;98809.79;105533;1254;61094;-27
2023/02/22 11:43:17;;;;;;;3.60;2.60;;;;;;;-0.93;73.06;98806.00;105586;1253;75266;-27
2023/02/22 11:45:59;;;;;;;2.80;1.50;;;;;;;-1.04;73.60;98811.89;105615;1260;76058;-26
2023/02/22 11:48:35;;;;;;;3.90;2.40;;;;;;;-0.64;72.85;98813.29;105692;1253;73895;-27
2023/02/22 11:51:19;;;;;;;2.80;2.00;;;;;;;-0.41;71.55;98813.04;105678;1259;61228;-27
2023/02/22 11:54:11;;;;;;;3.70;2.50;;;;;;;-0.34;71.69;98811.08;105435;1262;62144;-27
2023/02/22 11:56:43;;;;;;;1.70;1.00;;;;;;;-0.30;71.61;98814.83;105388;1253;75524;-27
2023/02/22 11:59:43;;;;;;;3.10;2.50;;;;;;;-0.28;71.69;98815.75;105300;1260;74495;-27